createdAt,value
2018-09-21T00:00:52.514Z,995.33
2018-09-21T00:01:52.500Z,995.34
2018-09-21T00:02:52.493Z,995.36
2018-09-21T00:03:52.484Z,995.31
2018-09-21T00:04:52.468Z,995.28
2018-09-21T00:05:52.456Z,995.25
2018-09-21T00:06:52.448Z,995.28
2018-09-21T00:07:52.443Z,995.28
2018-09-21T00:08:52.422Z,995.29
2018-09-21T00:09:52.419Z,995.26
2018-09-21T00:10:52.401Z,995.20
2018-09-21T00:11:52.396Z,995.19
2018-09-21T00:12:52.381Z,995.22
2018-09-21T00:13:52.369Z,995.22
2018-09-21T00:14:52.356Z,995.18
2018-09-21T00:15:52.348Z,995.15
2018-09-21T00:16:52.337Z,995.19
2018-09-21T00:17:52.324Z,995.15
2018-09-21T00:18:52.318Z,995.24
2018-09-21T00:19:52.305Z,995.16
2018-09-21T00:20:52.293Z,995.21
2018-09-21T00:21:52.284Z,995.13
2018-09-21T00:22:52.269Z,995.13
2018-09-21T00:23:52.260Z,995.18
2018-09-21T00:24:52.248Z,995.14
2018-09-21T00:25:52.235Z,995.17
2018-09-21T00:26:52.225Z,995.10
2018-09-21T00:27:52.214Z,995.11
2018-09-21T00:28:52.204Z,995.13
2018-09-21T00:29:52.191Z,995.13
2018-09-21T00:30:52.186Z,995.06
2018-09-21T00:31:52.173Z,995.10
2018-09-21T00:32:52.163Z,995.09
2018-09-21T00:33:52.151Z,995.08
2018-09-21T00:34:52.139Z,995.08
2018-09-21T00:35:52.129Z,995.04
2018-09-21T00:36:52.116Z,995.06
2018-09-21T00:37:52.107Z,995.07
2018-09-21T00:38:52.098Z,995.09
2018-09-21T00:39:52.084Z,995.10
2018-09-21T00:40:52.072Z,995.08
2018-09-21T00:41:52.062Z,995.05
2018-09-21T00:42:52.049Z,995.05
2018-09-21T00:43:52.038Z,995.08
2018-09-21T00:44:52.028Z,995.09
2018-09-21T00:45:52.019Z,995.08
2018-09-21T00:46:52.006Z,995.07
2018-09-21T00:47:51.999Z,995.12
2018-09-21T00:48:51.987Z,995.09
2018-09-21T00:49:51.976Z,995.08
2018-09-21T00:50:51.964Z,995.11
2018-09-21T00:51:51.952Z,995.11
2018-09-21T00:52:51.941Z,995.07
2018-09-21T00:53:51.930Z,995.02
2018-09-21T00:54:51.920Z,995.04
2018-09-21T00:55:51.914Z,995.03
2018-09-21T00:56:51.900Z,994.99
2018-09-21T00:57:51.886Z,995.03
2018-09-21T00:58:51.877Z,994.97
2018-09-21T00:59:51.862Z,995.00
2018-09-21T01:00:51.858Z,994.98
2018-09-21T01:01:51.844Z,994.97
2018-09-21T01:02:51.833Z,994.94
2018-09-21T01:03:51.821Z,994.92
2018-09-21T01:04:51.812Z,994.94
2018-09-21T01:05:51.806Z,994.94
2018-09-21T01:06:51.786Z,994.95
2018-09-21T01:07:51.778Z,994.96
2018-09-21T01:08:51.766Z,994.94
2018-09-21T01:09:51.752Z,994.92
2018-09-21T01:10:51.743Z,994.96
2018-09-21T01:11:51.731Z,994.93
2018-09-21T01:12:51.719Z,994.93
2018-09-21T01:13:51.707Z,994.91
2018-09-21T01:14:51.697Z,994.89
2018-09-21T01:15:51.685Z,994.91
2018-09-21T01:16:51.676Z,994.89
2018-09-21T01:17:51.663Z,994.85
2018-09-21T01:18:51.655Z,994.88
2018-09-21T01:19:51.642Z,994.86
2018-09-21T01:20:51.635Z,994.84
2018-09-21T01:21:51.621Z,994.91
2018-09-21T01:22:51.610Z,994.80
2018-09-21T01:23:51.597Z,994.90
2018-09-21T01:24:51.588Z,994.84
2018-09-21T01:25:51.577Z,994.84
2018-09-21T01:26:51.565Z,994.85
2018-09-21T01:27:51.553Z,994.80
2018-09-21T01:28:51.544Z,994.78
2018-09-21T01:29:51.534Z,994.77
2018-09-21T01:30:51.522Z,994.78
2018-09-21T01:31:51.514Z,994.72
2018-09-21T01:32:51.614Z,994.72
2018-09-21T01:33:51.487Z,994.70
2018-09-21T01:34:51.478Z,994.67
2018-09-21T01:35:51.465Z,994.57
2018-09-21T01:36:51.456Z,994.61
2018-09-21T01:37:51.447Z,994.52
2018-09-21T01:38:51.433Z,994.56
2018-09-21T01:39:51.424Z,994.48
2018-09-21T01:40:51.416Z,994.45
2018-09-21T01:41:51.404Z,994.42
2018-09-21T01:42:51.391Z,994.40
2018-09-21T01:43:51.379Z,994.41
2018-09-21T01:44:51.365Z,994.37
2018-09-21T01:45:51.361Z,994.35
2018-09-21T01:46:51.352Z,994.37
2018-09-21T01:47:51.334Z,994.29
2018-09-21T01:48:51.323Z,994.33
2018-09-21T01:49:51.310Z,994.30
2018-09-21T01:50:51.306Z,994.30
2018-09-21T01:51:51.290Z,994.27
2018-09-21T01:52:51.279Z,994.26
2018-09-21T01:53:51.269Z,994.25
2018-09-21T01:54:51.259Z,994.20
2018-09-21T01:55:51.246Z,994.16
2018-09-21T01:56:51.235Z,994.18
2018-09-21T01:57:51.225Z,994.16
2018-09-21T01:58:51.214Z,994.15
2018-09-21T01:59:51.201Z,994.09
2018-09-21T02:00:51.191Z,994.10
2018-09-21T02:01:51.181Z,994.18
2018-09-21T02:02:51.169Z,994.10
2018-09-21T02:03:51.156Z,994.12
2018-09-21T02:04:51.147Z,994.13
2018-09-21T02:05:51.139Z,994.15
2018-09-21T02:06:51.127Z,994.09
2018-09-21T02:07:51.115Z,994.15
2018-09-21T02:08:51.103Z,994.08
2018-09-21T02:09:51.092Z,994.03
2018-09-21T02:10:51.083Z,994.02
2018-09-21T02:11:51.072Z,994.04
2018-09-21T02:12:51.059Z,994.03
2018-09-21T02:13:51.049Z,993.91
2018-09-21T02:14:51.043Z,993.94
2018-09-21T02:15:51.025Z,993.92
2018-09-21T02:16:51.015Z,993.93
2018-09-21T02:17:51.007Z,993.95
2018-09-21T02:18:50.997Z,993.89
2018-09-21T02:19:50.983Z,993.89
2018-09-21T02:20:50.969Z,993.89
2018-09-21T02:21:50.960Z,993.84
2018-09-21T02:22:50.949Z,993.82
2018-09-21T02:23:50.939Z,993.84
2018-09-21T02:24:50.931Z,993.83
2018-09-21T02:25:50.915Z,993.82
2018-09-21T02:26:50.904Z,993.79
2018-09-21T02:27:50.895Z,993.75
2018-09-21T02:28:50.882Z,993.80
2018-09-21T02:29:50.873Z,993.75
2018-09-21T02:30:50.865Z,993.80
2018-09-21T02:31:50.856Z,993.80
2018-09-21T02:32:50.838Z,993.82
2018-09-21T02:33:50.830Z,993.81
2018-09-21T02:34:50.818Z,993.78
2018-09-21T02:35:50.806Z,993.71
2018-09-21T02:36:50.800Z,993.65
2018-09-21T02:37:50.784Z,993.73
2018-09-21T02:38:50.776Z,993.65
2018-09-21T02:39:50.759Z,993.62
2018-09-21T02:40:50.751Z,993.61
2018-09-21T02:41:50.740Z,993.56
2018-09-21T02:42:50.728Z,993.52
2018-09-21T02:43:50.717Z,993.54
2018-09-21T02:44:50.710Z,993.53
2018-09-21T02:45:50.698Z,993.49
2018-09-21T02:46:50.684Z,993.48
2018-09-21T02:47:50.674Z,993.42
2018-09-21T02:48:50.785Z,993.39
2018-09-21T02:49:50.651Z,993.33
2018-09-21T02:50:50.642Z,993.32
2018-09-21T02:51:50.628Z,993.30
2018-09-21T02:52:50.623Z,993.29
2018-09-21T02:53:50.608Z,993.25
2018-09-21T02:54:50.601Z,993.24
2018-09-21T02:55:50.584Z,993.19
2018-09-21T02:56:50.573Z,993.17
2018-09-21T02:57:50.562Z,993.14
2018-09-21T02:58:50.556Z,993.08
2018-09-21T02:59:50.540Z,993.05
2018-09-21T03:00:50.772Z,993.02
2018-09-21T03:01:50.521Z,993.02
2018-09-21T03:02:50.518Z,993.00
2018-09-21T03:03:50.499Z,992.97
2018-09-21T03:04:50.491Z,992.95
2018-09-21T03:05:50.475Z,992.92
2018-09-21T03:06:50.467Z,992.81
2018-09-21T03:07:50.456Z,992.84
2018-09-21T03:08:50.440Z,992.83
2018-09-21T03:09:50.432Z,992.82
2018-09-21T03:10:50.419Z,992.80
2018-09-21T03:11:50.408Z,992.79
2018-09-21T03:12:50.400Z,992.77
2018-09-21T03:13:50.388Z,992.75
2018-09-21T03:14:50.376Z,992.75
2018-09-21T03:15:50.364Z,992.72
2018-09-21T03:16:50.355Z,992.75
2018-09-21T03:17:50.343Z,992.78
2018-09-21T03:18:50.333Z,992.75
2018-09-21T03:19:50.319Z,992.72
2018-09-21T03:20:50.313Z,992.70
2018-09-21T03:21:50.298Z,992.65
2018-09-21T03:22:50.288Z,992.68
2018-09-21T03:23:50.278Z,992.64
2018-09-21T03:24:50.265Z,992.62
2018-09-21T03:25:50.257Z,992.65
2018-09-21T03:26:50.241Z,992.64
2018-09-21T03:27:50.231Z,992.63
2018-09-21T03:28:50.222Z,992.67
2018-09-21T03:29:50.209Z,992.59
2018-09-21T03:30:50.199Z,992.57
2018-09-21T03:31:50.188Z,992.51
2018-09-21T03:32:50.181Z,992.47
2018-09-21T03:33:50.171Z,992.52
2018-09-21T03:34:50.202Z,992.46
2018-09-21T03:35:50.146Z,992.42
2018-09-21T03:36:50.134Z,992.43
2018-09-21T03:37:50.124Z,992.45
2018-09-21T03:38:50.112Z,992.43
2018-09-21T03:39:50.101Z,992.43
2018-09-21T03:40:50.096Z,992.40
2018-09-21T03:41:50.093Z,992.41
2018-09-21T03:42:50.068Z,992.36
2018-09-21T03:43:50.057Z,992.30
2018-09-21T03:44:50.044Z,992.34
2018-09-21T03:45:50.040Z,992.35
2018-09-21T03:46:50.024Z,992.28
2018-09-21T03:47:50.011Z,992.28
2018-09-21T03:48:50.002Z,992.27
2018-09-21T03:49:49.989Z,992.31
2018-09-21T03:50:49.980Z,992.30
2018-09-21T03:51:49.973Z,992.26
2018-09-21T03:52:49.961Z,992.23
2018-09-21T03:53:49.947Z,992.23
2018-09-21T03:54:49.936Z,992.22
2018-09-21T03:55:49.927Z,992.20
2018-09-21T03:56:49.918Z,992.15
2018-09-21T03:57:49.902Z,992.13
2018-09-21T03:58:49.891Z,992.10
2018-09-21T03:59:49.879Z,992.08
2018-09-21T04:00:49.871Z,992.09
2018-09-21T04:01:49.857Z,992.10
2018-09-21T04:02:49.847Z,992.05
2018-09-21T04:03:49.837Z,992.05
2018-09-21T04:04:49.825Z,992.07
2018-09-21T04:05:49.813Z,992.05
2018-09-21T04:06:49.803Z,992.10
2018-09-21T04:07:49.790Z,992.05
2018-09-21T04:08:49.785Z,992.03
2018-09-21T04:09:49.772Z,991.95
2018-09-21T04:10:49.759Z,991.97
2018-09-21T04:11:49.748Z,991.95
2018-09-21T04:12:49.736Z,991.93
2018-09-21T04:13:49.727Z,991.92
2018-09-21T04:14:49.715Z,991.89
2018-09-21T04:15:49.703Z,991.89
2018-09-21T04:16:49.692Z,991.85
2018-09-21T04:17:49.683Z,991.81
2018-09-21T04:18:49.668Z,991.88
2018-09-21T04:19:49.659Z,991.80
2018-09-21T04:20:49.648Z,991.83
2018-09-21T04:21:49.641Z,991.86
2018-09-21T04:22:49.627Z,991.87
2018-09-21T04:23:49.614Z,991.82
2018-09-21T04:24:49.606Z,991.80
2018-09-21T04:25:49.594Z,991.75
2018-09-21T04:26:49.585Z,991.75
2018-09-21T04:27:49.569Z,991.71
2018-09-21T04:28:49.563Z,991.71
2018-09-21T04:29:49.561Z,991.65
2018-09-21T04:30:49.540Z,991.65
2018-09-21T04:31:49.534Z,991.63
2018-09-21T04:32:49.516Z,991.61
2018-09-21T04:33:49.506Z,991.57
2018-09-21T04:34:49.493Z,991.51
2018-09-21T04:35:49.488Z,991.49
2018-09-21T04:36:49.474Z,991.51
2018-09-21T04:37:49.460Z,991.51
2018-09-21T04:38:49.453Z,991.48
2018-09-21T04:39:49.441Z,991.44
2018-09-21T04:40:49.427Z,991.39
2018-09-21T04:41:49.417Z,991.37
2018-09-21T04:42:49.407Z,991.37
2018-09-21T04:43:49.395Z,991.36
2018-09-21T04:44:49.384Z,991.32
2018-09-21T04:45:49.394Z,991.32
2018-09-21T04:46:49.362Z,991.32
2018-09-21T04:47:49.349Z,991.32
2018-09-21T04:48:49.340Z,991.25
2018-09-21T04:49:49.328Z,991.26
2018-09-21T04:50:49.320Z,991.23
2018-09-21T04:51:49.306Z,991.31
2018-09-21T04:52:49.296Z,991.27
2018-09-21T04:53:49.287Z,991.21
2018-09-21T04:54:49.274Z,991.29
2018-09-21T04:55:49.264Z,991.25
2018-09-21T04:56:49.252Z,991.25
2018-09-21T04:57:49.241Z,991.28
2018-09-21T04:58:49.235Z,991.33
2018-09-21T04:59:49.222Z,991.36
2018-09-21T05:00:49.213Z,991.30
2018-09-21T05:01:49.198Z,991.35
2018-09-21T05:02:49.185Z,991.31
2018-09-21T05:03:49.174Z,991.33
2018-09-21T05:04:49.165Z,991.36
2018-09-21T05:05:49.153Z,991.35
2018-09-21T05:06:49.143Z,991.33
2018-09-21T05:07:49.133Z,991.39
2018-09-21T05:08:49.124Z,991.30
2018-09-21T05:09:49.112Z,991.33
2018-09-21T05:10:49.104Z,991.33
2018-09-21T05:11:49.091Z,991.33
2018-09-21T05:12:49.077Z,991.34
2018-09-21T05:13:49.143Z,991.32
2018-09-21T05:14:49.057Z,991.37
2018-09-21T05:15:49.047Z,991.32
2018-09-21T05:16:49.034Z,991.31
2018-09-21T05:17:49.026Z,991.35
2018-09-21T05:18:49.013Z,991.34
2018-09-21T05:19:49.027Z,991.33
2018-09-21T05:20:48.991Z,991.37
2018-09-21T05:21:48.979Z,991.36
2018-09-21T05:22:48.971Z,991.42
2018-09-21T05:23:48.963Z,991.42
2018-09-21T05:24:48.947Z,991.39
2018-09-21T05:25:48.939Z,991.40
2018-09-21T05:26:48.925Z,991.38
2018-09-21T05:27:48.919Z,991.36
2018-09-21T05:28:48.906Z,991.41
2018-09-21T05:29:48.897Z,991.38
2018-09-21T05:30:48.883Z,991.33
2018-09-21T05:31:48.878Z,991.37
2018-09-21T05:32:48.864Z,991.33
2018-09-21T05:33:48.855Z,991.33
2018-09-21T05:34:48.990Z,991.37
2018-09-21T05:35:48.832Z,991.35
2018-09-21T05:36:48.817Z,991.40
2018-09-21T05:37:48.811Z,991.36
2018-09-21T05:38:48.796Z,991.35
2018-09-21T05:39:48.783Z,991.36
2018-09-21T05:40:48.774Z,991.26
2018-09-21T05:41:48.762Z,991.23
2018-09-21T05:42:48.751Z,991.21
2018-09-21T05:43:48.743Z,991.21
2018-09-21T05:44:48.731Z,991.19
2018-09-21T05:45:48.727Z,991.25
2018-09-21T05:46:48.708Z,991.28
2018-09-21T05:47:48.699Z,991.27
2018-09-21T05:48:48.693Z,991.26
2018-09-21T05:49:48.676Z,991.26
2018-09-21T05:50:48.666Z,991.23
2018-09-21T05:51:48.654Z,991.22
2018-09-21T05:52:48.649Z,991.22
2018-09-21T05:53:48.643Z,991.23
2018-09-21T05:54:48.623Z,991.20
2018-09-21T05:55:48.614Z,991.20
2018-09-21T05:56:48.602Z,991.10
2018-09-21T05:57:48.591Z,991.10
2018-09-21T05:58:48.579Z,991.10
2018-09-21T05:59:48.567Z,991.14
2018-09-21T06:00:48.557Z,991.11
2018-09-21T06:01:48.549Z,991.17
2018-09-21T06:02:48.580Z,991.21
2018-09-21T06:03:48.526Z,991.20
2018-09-21T06:04:48.517Z,991.25
2018-09-21T06:05:48.503Z,991.28
2018-09-21T06:06:48.499Z,991.31
2018-09-21T06:07:48.504Z,991.25
2018-09-21T06:08:48.473Z,991.29
2018-09-21T06:09:48.459Z,991.21
2018-09-21T06:10:48.454Z,991.29
2018-09-21T06:11:48.445Z,991.28
2018-09-21T06:12:48.428Z,991.21
2018-09-21T06:13:48.491Z,991.18
2018-09-21T06:14:48.404Z,991.11
2018-09-21T06:15:48.400Z,991.07
2018-09-21T06:16:48.383Z,991.01
2018-09-21T06:17:48.379Z,991.01
2018-09-21T06:18:48.362Z,991.09
2018-09-21T06:19:48.401Z,991.23
2018-09-21T06:20:48.343Z,991.19
2018-09-21T06:21:48.331Z,991.16
2018-09-21T06:22:48.327Z,991.21
2018-09-21T06:23:48.316Z,991.15
2018-09-21T06:24:48.299Z,991.20
2018-09-21T06:25:48.291Z,991.25
2018-09-21T06:26:48.276Z,991.32
2018-09-21T06:27:48.265Z,991.28
2018-09-21T06:28:48.255Z,991.24
2018-09-21T06:29:48.245Z,991.27
2018-09-21T06:30:48.234Z,991.26
2018-09-21T06:31:48.231Z,991.22
2018-09-21T06:32:48.211Z,991.31
2018-09-21T06:33:48.302Z,991.24
2018-09-21T06:34:48.189Z,991.17
2018-09-21T06:35:48.183Z,991.21
2018-09-21T06:36:48.167Z,991.28
2018-09-21T06:37:48.156Z,991.19
2018-09-21T06:38:48.144Z,991.21
2018-09-21T06:39:48.136Z,991.19
2018-09-21T06:40:48.128Z,991.21
2018-09-21T06:41:48.111Z,991.26
2018-09-21T06:42:48.102Z,991.28
2018-09-21T06:43:48.094Z,991.29
2018-09-21T06:44:48.081Z,991.29
2018-09-21T06:45:48.068Z,991.32
2018-09-21T06:46:48.057Z,991.28
2018-09-21T06:47:48.049Z,991.39
2018-09-21T06:48:48.038Z,991.37
2018-09-21T06:49:48.032Z,991.42
2018-09-21T06:50:48.014Z,991.34
2018-09-21T06:51:48.008Z,991.41
2018-09-21T06:52:47.992Z,991.38
2018-09-21T06:53:47.982Z,991.44
2018-09-21T06:54:47.972Z,991.41
2018-09-21T06:55:47.962Z,991.41
2018-09-21T06:56:47.950Z,991.46
2018-09-21T06:57:47.940Z,991.45
2018-09-21T06:58:47.930Z,991.46
2018-09-21T06:59:47.919Z,991.47
2018-09-21T07:00:47.909Z,991.44
2018-09-21T07:01:47.971Z,991.46
2018-09-21T07:02:47.885Z,991.49
2018-09-21T07:03:47.876Z,991.45
2018-09-21T07:04:47.868Z,991.40
2018-09-21T07:05:47.853Z,991.44
2018-09-21T07:06:47.844Z,991.37
2018-09-21T07:07:47.829Z,991.34
2018-09-21T07:08:47.820Z,991.38
2018-09-21T07:09:47.818Z,991.26
2018-09-21T07:10:47.803Z,991.21
2018-09-21T07:11:47.787Z,991.20
2018-09-21T07:12:47.780Z,991.25
2018-09-21T07:13:47.766Z,991.31
2018-09-21T07:14:47.754Z,991.24
2018-09-21T07:15:47.779Z,991.27
2018-09-21T07:16:47.734Z,991.28
2018-09-21T07:17:47.726Z,991.25
2018-09-21T07:18:47.714Z,991.25
2018-09-21T07:19:47.700Z,991.23
2018-09-21T07:20:47.695Z,991.19
2018-09-21T07:21:47.679Z,991.20
2018-09-21T07:22:47.670Z,991.13
2018-09-21T07:23:47.656Z,991.14
2018-09-21T07:24:47.649Z,991.16
2018-09-21T07:25:47.639Z,991.06
2018-09-21T07:26:47.625Z,991.07
2018-09-21T07:27:47.614Z,991.13
2018-09-21T07:28:47.607Z,991.15
2018-09-21T07:29:47.595Z,991.17
2018-09-21T07:30:47.587Z,991.14
2018-09-21T07:31:47.576Z,991.18
2018-09-21T07:32:47.559Z,991.13
2018-09-21T07:33:47.553Z,991.12
2018-09-21T07:34:47.540Z,991.16
2018-09-21T07:35:47.533Z,991.13
2018-09-21T07:36:47.519Z,991.08
2018-09-21T07:37:47.510Z,991.07
2018-09-21T07:38:47.498Z,991.09
2018-09-21T07:39:47.483Z,990.97
2018-09-21T07:40:47.473Z,990.98
2018-09-21T07:41:47.466Z,990.95
2018-09-21T07:42:47.499Z,990.93
2018-09-21T07:43:47.442Z,991.01
2018-09-21T07:44:47.436Z,991.05
2018-09-21T07:45:47.421Z,991.14
2018-09-21T07:46:47.410Z,991.04
2018-09-21T07:47:47.399Z,991.06
2018-09-21T07:48:47.455Z,990.99
2018-09-21T07:49:47.378Z,990.93
2018-09-21T07:50:47.371Z,991.01
2018-09-21T07:51:47.357Z,991.14
2018-09-21T07:52:47.345Z,991.18
2018-09-21T07:53:47.335Z,991.14
2018-09-21T07:54:47.325Z,991.12
2018-09-21T07:55:47.311Z,991.16
2018-09-21T07:56:47.301Z,991.16
2018-09-21T07:57:47.290Z,991.15
2018-09-21T07:58:47.282Z,991.15
2018-09-21T07:59:47.273Z,991.22
2018-09-21T08:00:47.260Z,991.32
2018-09-21T08:01:47.247Z,991.27
2018-09-21T08:02:47.237Z,991.28
2018-09-21T08:03:47.226Z,991.28
2018-09-21T08:04:47.217Z,991.28
2018-09-21T08:05:47.203Z,991.33
2018-09-21T08:06:47.193Z,991.34
2018-09-21T08:07:47.187Z,991.41
2018-09-21T08:08:47.173Z,991.47
2018-09-21T08:09:47.160Z,991.52
2018-09-21T08:10:47.149Z,991.51
2018-09-21T08:11:47.139Z,991.45
2018-09-21T08:12:47.134Z,991.47
2018-09-21T08:13:47.117Z,991.46
2018-09-21T08:14:47.105Z,991.43
2018-09-21T08:15:47.095Z,991.28
2018-09-21T08:16:47.086Z,991.23
2018-09-21T08:17:47.075Z,991.22
2018-09-21T08:18:47.064Z,991.21
2018-09-21T08:19:47.055Z,991.31
2018-09-21T08:20:47.042Z,991.28
2018-09-21T08:21:47.029Z,991.31
2018-09-21T08:22:47.019Z,991.32
2018-09-21T08:23:47.011Z,991.34
2018-09-21T08:24:47.000Z,991.40
2018-09-21T08:25:46.990Z,991.23
2018-09-21T08:26:46.977Z,991.10
2018-09-21T08:27:46.967Z,991.16
2018-09-21T08:28:46.959Z,991.18
2018-09-21T08:29:46.946Z,991.31
2018-09-21T08:30:46.934Z,991.25
2018-09-21T08:31:46.923Z,991.15
2018-09-21T08:32:46.912Z,991.12
2018-09-21T08:33:46.902Z,991.13
2018-09-21T08:34:46.890Z,991.08
2018-09-21T08:35:46.883Z,990.93
2018-09-21T08:36:46.870Z,991.01
2018-09-21T08:37:46.857Z,991.05
2018-09-21T08:38:46.847Z,991.04
2018-09-21T08:39:46.840Z,990.98
2018-09-21T08:40:46.826Z,991.00
2018-09-21T08:41:46.815Z,990.99
2018-09-21T08:42:46.807Z,990.91
2018-09-21T08:43:46.797Z,991.03
2018-09-21T08:44:46.783Z,990.92
2018-09-21T08:45:46.776Z,990.90
2018-09-21T08:46:46.761Z,990.93
2018-09-21T08:47:46.752Z,991.02
2018-09-21T08:48:46.740Z,991.01
2018-09-21T08:49:46.731Z,990.99
2018-09-21T08:50:46.721Z,991.01
2018-09-21T08:51:46.708Z,991.10
2018-09-21T08:52:46.697Z,991.12
2018-09-21T08:53:46.688Z,991.18
2018-09-21T08:54:46.725Z,991.11
2018-09-21T08:55:46.665Z,991.10
2018-09-21T08:56:46.653Z,991.13
2018-09-21T08:57:46.643Z,991.20
2018-09-21T08:58:46.633Z,991.26
2018-09-21T08:59:46.620Z,991.24
2018-09-21T09:00:46.610Z,991.28
2018-09-21T09:01:46.598Z,991.23
2018-09-21T09:02:46.681Z,991.25
2018-09-21T09:03:46.577Z,991.22
2018-09-21T09:04:46.571Z,991.24
2018-09-21T09:05:46.556Z,991.33
2018-09-21T09:06:46.547Z,991.37
2018-09-21T09:07:46.535Z,991.36
2018-09-21T09:08:46.524Z,991.29
2018-09-21T09:09:46.513Z,991.31
2018-09-21T09:10:46.514Z,991.25
2018-09-21T09:11:46.500Z,991.16
2018-09-21T09:12:46.479Z,991.07
2018-09-21T09:13:46.470Z,991.14
2018-09-21T09:14:46.461Z,991.17
2018-09-21T09:15:46.452Z,991.14
2018-09-21T09:16:46.436Z,991.19
2018-09-21T09:17:46.426Z,990.99
2018-09-21T09:18:46.416Z,990.99
2018-09-21T09:19:46.407Z,991.03
2018-09-21T09:20:46.398Z,991.19
2018-09-21T09:21:46.383Z,991.23
2018-09-21T09:22:46.373Z,991.03
2018-09-21T09:23:46.363Z,991.15
2018-09-21T09:24:46.355Z,991.02
2018-09-21T09:25:46.339Z,991.02
2018-09-21T09:26:46.330Z,991.15
2018-09-21T09:27:46.318Z,991.17
2018-09-21T09:28:46.307Z,991.22
2018-09-21T09:29:46.301Z,991.22
2018-09-21T09:30:46.285Z,991.25
2018-09-21T09:31:46.277Z,991.31
2018-09-21T09:32:46.268Z,991.31
2018-09-21T09:33:46.252Z,991.24
2018-09-21T09:34:46.243Z,991.20
2018-09-21T09:35:46.232Z,991.17
2018-09-21T09:36:46.229Z,991.17
2018-09-21T09:37:46.209Z,991.14
2018-09-21T09:38:46.199Z,991.06
2018-09-21T09:39:46.191Z,991.15
2018-09-21T09:40:46.182Z,991.13
2018-09-21T09:41:46.166Z,991.10
2018-09-21T09:42:46.254Z,991.12
2018-09-21T09:43:46.146Z,991.14
2018-09-21T09:44:46.135Z,991.12
2018-09-21T09:45:46.125Z,991.19
2018-09-21T09:46:46.113Z,991.21
2018-09-21T09:47:46.104Z,991.20
2018-09-21T09:48:46.206Z,991.11
2018-09-21T09:49:46.081Z,991.14
2018-09-21T09:50:46.070Z,991.09
2018-09-21T09:51:46.061Z,991.16
2018-09-21T09:52:46.049Z,991.30
2018-09-21T09:53:46.041Z,991.21
2018-09-21T09:54:46.067Z,991.34
2018-09-21T09:55:46.017Z,991.56
2018-09-21T09:56:46.007Z,991.80
2018-09-21T09:57:45.995Z,992.05
2018-09-21T09:58:45.983Z,992.33
2018-09-21T09:59:45.973Z,992.18
2018-09-21T10:00:45.963Z,992.31
2018-09-21T10:01:45.955Z,992.68
2018-09-21T10:02:45.941Z,992.79
2018-09-21T10:03:46.054Z,992.83
2018-09-21T10:04:45.919Z,992.79
2018-09-21T10:05:45.906Z,992.78
2018-09-21T10:06:45.905Z,992.90
2018-09-21T10:07:45.885Z,992.98
2018-09-21T10:08:45.875Z,993.03
2018-09-21T10:09:45.868Z,993.02
2018-09-21T10:10:45.853Z,992.99
2018-09-21T10:11:45.845Z,993.02
2018-09-21T10:12:45.832Z,993.18
2018-09-21T10:13:45.819Z,993.20
2018-09-21T10:14:45.810Z,993.31
2018-09-21T10:15:45.798Z,993.30
2018-09-21T10:16:45.791Z,993.41
2018-09-21T10:17:45.778Z,993.52
2018-09-21T10:18:45.768Z,993.61
2018-09-21T10:19:45.760Z,993.64
2018-09-21T10:20:45.840Z,993.76
2018-09-21T10:21:45.739Z,993.76
2018-09-21T10:22:45.721Z,993.73
2018-09-21T10:23:45.712Z,993.78
2018-09-21T10:24:45.703Z,993.75
2018-09-21T10:25:45.690Z,993.77
2018-09-21T10:26:45.755Z,993.82
2018-09-21T10:27:45.893Z,993.90
2018-09-21T10:28:45.905Z,993.98
2018-09-21T10:29:45.646Z,994.02
2018-09-21T10:30:45.633Z,994.01
2018-09-21T10:31:45.625Z,994.12
2018-09-21T10:32:45.614Z,994.12
2018-09-21T10:33:45.743Z,994.08
2018-09-21T10:34:45.589Z,994.06
2018-09-21T10:35:45.583Z,994.08
2018-09-21T10:36:45.568Z,994.12
2018-09-21T10:37:45.557Z,994.11
2018-09-21T10:38:45.546Z,994.22
2018-09-21T10:39:45.538Z,994.14
2018-09-21T10:40:45.555Z,994.19
2018-09-21T10:41:45.514Z,994.09
2018-09-21T10:42:45.655Z,994.18
2018-09-21T10:43:45.491Z,994.12
2018-09-21T10:44:45.486Z,994.09
2018-09-21T10:45:45.470Z,994.18
2018-09-21T10:46:45.459Z,994.20
2018-09-21T10:47:45.451Z,994.21
2018-09-21T10:48:45.436Z,994.21
2018-09-21T10:49:45.422Z,994.17
2018-09-21T10:50:45.415Z,994.13
2018-09-21T10:51:45.400Z,994.13
2018-09-21T10:52:45.449Z,994.14
2018-09-21T10:53:45.385Z,994.18
2018-09-21T10:54:45.367Z,994.13
2018-09-21T10:55:45.358Z,994.15
2018-09-21T10:56:45.348Z,994.15
2018-09-21T10:57:45.337Z,994.12
2018-09-21T10:58:45.454Z,994.05
2018-09-21T10:59:45.313Z,994.08
2018-09-21T11:00:45.305Z,993.98
2018-09-21T11:01:45.293Z,993.95
2018-09-21T11:02:45.279Z,993.96
2018-09-21T11:03:45.269Z,993.94
2018-09-21T11:04:45.260Z,993.88
2018-09-21T11:05:45.248Z,993.87
2018-09-21T11:06:45.239Z,993.94
2018-09-21T11:07:45.226Z,994.03
2018-09-21T11:08:45.215Z,994.01
2018-09-21T11:09:45.202Z,993.94
2018-09-21T11:10:45.195Z,994.00
2018-09-21T11:11:45.181Z,993.99
2018-09-21T11:12:45.173Z,994.05
2018-09-21T11:13:45.160Z,994.09
2018-09-21T11:14:45.149Z,994.03
2018-09-21T11:15:45.138Z,994.10
2018-09-21T11:16:45.127Z,994.14
2018-09-21T11:17:45.120Z,994.12
2018-09-21T11:18:45.106Z,994.07
2018-09-21T11:19:45.094Z,994.14
2018-09-21T11:20:45.084Z,994.04
2018-09-21T11:21:45.071Z,993.97
2018-09-21T11:22:45.061Z,993.96
2018-09-21T11:23:45.051Z,994.00
2018-09-21T11:24:45.042Z,994.02
2018-09-21T11:25:45.027Z,994.00
2018-09-21T11:26:45.021Z,993.95
2018-09-21T11:27:45.006Z,993.94
2018-09-21T11:28:44.995Z,994.00
2018-09-21T11:29:44.986Z,994.02
2018-09-21T11:30:44.971Z,994.00
2018-09-21T11:31:44.961Z,994.05
2018-09-21T11:32:44.954Z,994.05
2018-09-21T11:33:44.940Z,994.11
2018-09-21T11:34:44.928Z,994.12
2018-09-21T11:35:44.918Z,994.13
2018-09-21T11:36:44.909Z,994.02
2018-09-21T11:37:44.894Z,993.97
2018-09-21T11:38:44.887Z,994.01
2018-09-21T11:39:44.875Z,994.02
2018-09-21T11:40:44.863Z,993.97
2018-09-21T11:41:44.852Z,993.93
2018-09-21T11:42:44.841Z,993.91
2018-09-21T11:43:44.829Z,993.95
2018-09-21T11:44:44.820Z,993.90
2018-09-21T11:45:44.810Z,993.99
2018-09-21T11:46:44.856Z,993.96
2018-09-21T11:47:44.831Z,993.88
2018-09-21T11:48:44.776Z,993.88
2018-09-21T11:49:44.763Z,993.91
2018-09-21T11:50:44.752Z,993.91
2018-09-21T11:51:44.745Z,993.89
2018-09-21T11:52:44.731Z,993.93
2018-09-21T11:53:44.721Z,994.03
2018-09-21T11:54:44.710Z,994.06
2018-09-21T11:55:44.700Z,994.11
2018-09-21T11:56:44.685Z,994.14
2018-09-21T11:57:44.675Z,994.22
2018-09-21T11:58:44.663Z,994.21
2018-09-21T11:59:44.655Z,994.26
2018-09-21T12:00:44.643Z,994.30
2018-09-21T12:01:44.668Z,994.32
2018-09-21T12:02:44.621Z,994.31
2018-09-21T12:03:44.612Z,994.41
2018-09-21T12:04:44.599Z,994.38
2018-09-21T12:05:44.591Z,994.40
2018-09-21T12:06:44.575Z,994.42
2018-09-21T12:07:44.572Z,994.42
2018-09-21T12:08:44.556Z,994.36
2018-09-21T12:09:44.545Z,994.35
2018-09-21T12:10:44.533Z,994.35
2018-09-21T12:11:44.525Z,994.45
2018-09-21T12:12:44.510Z,994.31
2018-09-21T12:13:44.499Z,994.21
2018-09-21T12:14:44.489Z,994.22
2018-09-21T12:15:44.482Z,994.13
2018-09-21T12:16:44.467Z,994.06
2018-09-21T12:17:44.456Z,994.02
2018-09-21T12:18:44.445Z,993.95
2018-09-21T12:19:44.437Z,993.96
2018-09-21T12:20:44.424Z,993.94
2018-09-21T12:21:44.411Z,993.98
2018-09-21T12:22:44.429Z,993.96
2018-09-21T12:23:44.394Z,993.95
2018-09-21T12:24:44.379Z,993.92
2018-09-21T12:25:44.369Z,993.96
2018-09-21T12:26:44.357Z,993.98
2018-09-21T12:27:44.346Z,993.96
2018-09-21T12:28:44.337Z,993.97